• Join FlightAware (Why Join?)
  • Login
  • US Flag 
09:19PM EST


 

Airport Tracker/Info


-or-


 

Live Flight TrackerFlight Track Log ✈ UPS1325 ✈ 22-Aug-2014 ✈ KMCO - KSDF

Flight Track Log - Related Links

Times and Time Zones

All times are in EDT time to prevent confusion due to time zone crossing. See the UPS1325 flight status page for this flight to view local times or setup timezone preferences in your user account.

Time Position Orientation Groundspeed Altitude Reporting Facility
EDT Latitude Longitude Course Direction KTS MPH feet Rate Location/Type
10:13PM 28.4240 -81.3267 180° South 178 205 400  Level FlightAware ADS-B (KMCO)
10:14PM 28.4071 -81.3310 203° Southwest 205 236 1,300 2,400 Climbing FlightAware ADS-B (KMCO)
10:14PM 28.3877 -81.3409 206° Southwest 239 275 2,100 3,300 Climbing FlightAware ADS-B (KMCO)
10:14PM 28.3668 -81.3522 205° Southwest 249 287 3,500 4,620 Climbing FlightAware ADS-B (KMCO)
10:15PM 28.3454 -81.3631 207° Southwest 245 282 5,200 3,780 Climbing FlightAware ADS-B (KMCO)
10:15PM 28.3295 -81.3814 245° Southwest 272 313 6,100 2,520 Climbing FlightAware ADS-B (KMCO)
10:15PM 28.3285 -81.4118 290° West 289 333 6,900 3,060 Climbing FlightAware ADS-B (KMCO)
10:16PM 28.3467 -81.4335 336° Northwest 280 322 8,200 3,600 Climbing FlightAware ADS-B (KMCO)
10:16PM 28.3721 -81.4396 351° North 280 322 9,400 2,400 Climbing FlightAware ADS-B (KMCO)
10:17PM 28.4347 -81.4513 351° North 347 399 10,800 1,440 Climbing FlightAware ADS-B (KMCO)
10:17PM 28.5059 -81.4641 351° North 418 481 11,500 2,160 Climbing FlightAware ADS-B (KMCO)
10:18PM 28.5929 -81.4811 350° North 435 501 13,900 3,060 Climbing FlightAware ADS-B (KMCO)
10:19PM 28.6745 -81.4958 351° North 450 518 15,900 3,060 Climbing FlightAware ADS-B (KMCO)
10:19PM 28.7603 -81.5105 352° North 454 522 18,100 2,700 Climbing FlightAware ADS-B (KMCO)
10:20PM 28.8447 -81.5245 351° North 476 548 19,500 2,100 Climbing FlightAware ADS-B (KMCO)
10:21PM 28.9352 -81.5398 352° North 491 565 21,000 2,160 Climbing FlightAware ADS-B (KMCO)
10:21PM 29.0277 -81.5558 351° North 500 575 22,500 2,100 Climbing FlightAware ADS-B (KMCO)
10:22PM 29.1255 -81.5733 351° North 509 586 23,900 1,920 Climbing FlightAware ADS-B (KMCO)
10:23PM 29.2192 -81.5907 350° North 518 596 25,200 2,520 Climbing FlightAware ADS-B (KMCO)
10:23PM 29.3052 -81.6122 344° North 512 589 27,200 3,060 Climbing FlightAware ADS-B (KMCO)
10:24PM 29.4033 -81.6437 345° North 503 579 29,300 2,700 Climbing FlightAware ADS-B (KMCO)
10:25PM 29.4974 -81.6738 344° North 496 571 31,100 2,460 Climbing FlightAware ADS-B (KMCO)
10:26PM 29.5893 -81.7035 344° North 490 564 32,800 1,800 Climbing FlightAware ADS-B (KMCO)
10:26PM 29.6833 -81.7339 344° North 485 558 33,700 1,320 Climbing FlightAware ADS-B (KMCO)
10:27PM 29.7836 -81.7664 344° North 489 563 34,800 1,440 Climbing FlightAware ADS-B (KMCO)
10:28PM 29.8431 -81.7858 344° North 491 565 35,600 1,440 Climbing FlightAware ADS-B (KMCO)
10:29PM 29.9745 -81.8285 344° North 489 563 37,000 720 Climbing FlightAware ADS-B (KMCO)
10:29PM 30.0744 -81.8606 344° North 481 554 37,000  Level Jacksonville Center
10:30PM 30.2042 -81.9022 344° North 481 554 37,000  Level Jacksonville Center
10:31PM 30.3361 -81.9419 345° North 481 554 37,000  Level Jacksonville Center
10:32PM 30.4658 -81.9864 344° North 490 564 37,000  Level Jacksonville Center
10:33PM 30.6122 -82.0406 342° North 490 564 37,000  Level Jacksonville Center
10:34PM 30.7442 -82.0828 345° North 490 564 37,000  Level Jacksonville Center
10:35PM 30.8739 -82.1278 343° North 485 558 37,000  Level Jacksonville Center
10:36PM 31.0058 -82.1728 344° North 485 558 37,000 -60 Level Jacksonville Center
10:37PM 31.1375 -82.2153 345° North 480 552 36,900  Descending Jacksonville Center
10:38PM 31.2692 -82.2606 344° North 480 552 37,000  Climbing Jacksonville Center
10:39PM 31.4011 -82.3058 344° North 480 552 37,000  Level Jacksonville Center
10:41PM 31.6414 -82.3800 345° North 495 570 37,000  Level Atlanta Center
10:42PM 31.7758 -82.4264 344° North 495 570 37,000  Level Atlanta Center
10:43PM 31.9056 -82.4706 344° North 495 570 37,000  Level Atlanta Center
10:44PM 32.0378 -82.5150 344° North 495 570 37,000  Level Atlanta Center
10:45PM 32.1678 -82.5617 343° North 495 570 37,000  Level Atlanta Center
10:46PM 32.2997 -82.6039 345° North 495 570 37,000 300 Level Atlanta Center
10:47PM 32.4358 -82.6508 344° North 495 570 37,700 480 Climbing Atlanta Center
10:48PM 32.5636 -82.6981 343° North 490 564 38,000 120 Climbing Atlanta Center
10:49PM 32.6917 -82.7431 344° North 480 552 38,000  Level Atlanta Center
10:50PM 32.8214 -82.7881 344° North 480 552 38,000  Level Atlanta Center
10:51PM 32.9514 -82.8333 344° North 480 552 38,000  Level Atlanta Center
10:52PM 33.0833 -82.8786 344° North 480 552 38,000  Level Atlanta Center
10:53PM 33.2131 -82.9264 343° North 480 552 38,000  Level Atlanta Center
10:54PM 33.3325 -82.9672 344° North 480 552 38,000  Level Atlanta Center
10:55PM 33.4644 -83.0103 345° North 480 552 38,100  Climbing Atlanta Center
10:56PM 33.5942 -83.0561 344° North 480 552 38,100 -60 Level Atlanta Center
10:57PM 33.7239 -83.1022 344° North 480 552 38,000 -60 Descending Atlanta Center
10:58PM 33.8536 -83.1458 344° North 480 552 38,000  Level Atlanta Center
10:59PM 33.9856 -83.1919 344° North 485 558 38,000  Level Atlanta Center
11:00PM 34.1153 -83.2408 343° North 480 552 38,000  Level Atlanta Center
11:01PM 34.2469 -83.2875 344° North 480 552 38,000  Level Atlanta Center
11:02PM 34.3911 -83.3364 344° North 480 552 38,100  Climbing Atlanta Center
11:03PM 34.5208 -83.3833 343° North 480 552 38,100 -60 Level Atlanta Center
11:04PM 34.6483 -83.4303 343° North 480 552 38,000 -60 Descending Atlanta Center
11:05PM 34.7761 -83.4825 341° North 480 552 38,000  Level Atlanta Center
11:06PM 34.9036 -83.5297 343° North 480 552 38,000  Level Atlanta Center
11:07PM 35.0331 -83.5719 345° North 480 552 38,000  Level Atlanta Center
11:08PM 35.1625 -83.6222 342° North 480 552 38,000  Level Atlanta Center
11:09PM 35.2900 -83.6672 344° North 480 552 38,000  Level Atlanta Center
11:10PM 35.4153 -83.7125 344° North 480 552 38,100  Climbing Atlanta Center
11:11PM 35.5428 -83.7631 342° North 480 552 38,000 -780 Descending Atlanta Center
11:22PM 36.8072 -84.5763 314° West 497 572 29,300 -840 Descending FlightAware ADS-B (KMDQ)
11:22PM 36.8165 -84.5884 314° West 497 572 29,200 -1,140 Descending FlightAware ADS-B (KMDQ)
11:23PM 36.9171 -84.7211 313° West 501 577 28,000 -1,740 Descending FlightAware ADS-B (KBRY)
11:24PM 36.9888 -84.8151 314° West 484 557 26,200 -2,400 Descending FlightAware ADS-B (KBRY)
11:26PM 37.1824 -85.0719 313° West 411 473 20,800 -2,580 Descending FlightAware ADS-B (KBRY)
11:27PM 37.2513 -85.1759 298° West 392 451 17,900 -2,700 Descending FlightAware ADS-B (KBRY)
11:28PM 37.3000 -85.2919 297° West 368 423 15,500 -2,400 Descending FlightAware ADS-B (KBRY)
11:29PM 37.3475 -85.4072 297° West 361 415 13,200 -1,800 Descending FlightAware ADS-B (KBRY)
11:30PM 37.3934 -85.5213 294° West 356 410 11,800 -1,020 Descending FlightAware ADS-B (KBRY)
11:31PM 37.4358 -85.6291 313° West 304 350 11,100 -900 Descending FlightAware ADS-B (KBRY)
11:32PM 37.5057 -85.6691 358° North 282 325 10,000 -1,260 Descending FlightAware ADS-B (KBRY)
11:33PM 37.5811 -85.6726 359° North 271 312 8,600 -1,560 Descending FlightAware ADS-B (KBRY)
11:34PM 37.6597 -85.6639 12° North 272 313 6,900 -1,140 Descending FlightAware ADS-B (KBRY)
11:35PM 37.7374 -85.6598 North 270 311 6,300 -600 Descending FlightAware ADS-B (KBRY)
11:36PM 37.8065 -85.6582 North 251 289 5,700 -600 Descending FlightAware ADS-B (KBRY)
11:37PM 37.8738 -85.6572 North 222 255 5,100 -600 Descending FlightAware ADS-B (KBRY)
11:38PM 37.9303 -85.6646 347° North 185 213 4,600 -600 Descending FlightAware ADS-B (KBRY)
11:39PM 37.9795 -85.6806 345° North 187 215 3,900 -900 Descending FlightAware ADS-B (KBRY)
11:40PM 38.0299 -85.6972 345° North 184 212 2,900 -1,020 Descending FlightAware ADS-B (KBRY)
11:41PM 38.0670 -85.7093 345° North 169 194 2,000 -900 Descending FlightAware ADS-B (KBRY)
11:42PM 38.1173 -85.7259 346° North 149 171 1,200 -840 Descending FlightAware ADS-B (KBRY)
11:49PM 38.1741 -85.7365 293° West  Level Estimated